Newquay, United Kingdom

7:14 AM BST on August 30, 2016 (GMT +0100)
Newquay | | Change Station

Elev 119 ft 50.42 °N, 5.05 °W | Updated 14 minutes ago

Mostly Cloudy
Mostly Cloudy
59.4 °F
Feels Like 59.4 °F
N
3.0
Wind Variable Wind from ESE
Gusts 5.0 mph

Today
High -- | Low -- °F
--% Chance of Precip.
Yesterday
High -- | Low -- °F
Precip. -- in
Pressure 30.24 in
Visibility 6.2 miles
Clouds Scattered Clouds 1000 ft
Mostly Cloudy 1200 ft
Dew Point 57 °F
Humidity 91%
Rainfall 0.00 in
Snow Depth Not available.
6:31 AM 8:08 PM
Waning Crescent, 5% visible
METAR EGDR 300550Z 06002KT 9999 SCT010 BKN012 15/13 Q1024 GRN NOSIG
Pressure 30.24 in
Visibility 6.2 miles
Clouds Scattered Clouds 1000 ft
Mostly Cloudy 1200 ft
Dew Point 57 °F
Humidity 91%
Rainfall 0.00 in
Snow Depth Not available.
6:31 AM 8:08 PM
Waning Crescent, 5% visible
METAR EGDR 300550Z 06002KT 9999 SCT010 BKN012 15/13 Q1024 GRN NOSIG

10-Day Weather Forecast

×

Almanac

Astronomy

Aug. 30, 2016 Rise Set
Actual Time
Civil Twilight
Nautical Twilight
Astronomical Twilight
Moon
Length of Visible Light
Length of Day
Tomorrow will be .
, % of the Moon is Illuminated

Today's Extremes

Country Highs Country Lows

Community

WunderPhotos

Upload Photos

1,935,795 photos uploaded!

WunderBlog® & News

Nearby

Air Quality

  Air Quality AQ Index Pollutant
Not available.

Snow Depth

Station Depth Elevation

Earthquake Activity

City Distance Mag. Time & Date
Minimum magnitude displayed is 2.5.

Coastal Water Temperatures

Place Temperature

Stations

Nearby Weather Stations

Station Location Temp. Windchill Dew Point Humidity Wind Precip. Elev Updated Type